sensor_id;sensor_type;location;lat;lon;timestamp;temperature;humidity
59857;DHT22;45733;52.668;6.860;2023-08-30T00:01:04;14.00;99.90
59857;DHT22;45733;52.668;6.860;2023-08-30T00:03:30;14.00;99.90
59857;DHT22;45733;52.668;6.860;2023-08-30T00:05:55;14.00;99.90
59857;DHT22;45733;52.668;6.860;2023-08-30T00:08:21;13.90;99.90
59857;DHT22;45733;52.668;6.860;2023-08-30T00:10:47;13.90;99.90
59857;DHT22;45733;52.668;6.860;2023-08-30T00:13:13;13.70;99.90
59857;DHT22;45733;52.668;6.860;2023-08-30T00:15:38;13.70;99.90
59857;DHT22;45733;52.668;6.860;2023-08-30T00:18:04;13.80;99.90
59857;DHT22;45733;52.668;6.860;2023-08-30T00:20:31;13.80;99.90
59857;DHT22;45733;52.668;6.860;2023-08-30T00:22:56;13.70;99.90
59857;DHT22;45733;52.668;6.860;2023-08-30T00:25:22;13.70;99.90
59857;DHT22;45733;52.668;6.860;2023-08-30T00:27:51;13.60;99.90
59857;DHT22;45733;52.668;6.860;2023-08-30T00:30:16;13.60;99.90
59857;DHT22;45733;52.668;6.860;2023-08-30T00:32:42;13.60;99.90
59857;DHT22;45733;52.668;6.860;2023-08-30T00:35:10;13.60;99.90
59857;DHT22;45733;52.668;6.860;2023-08-30T00:37:35;13.60;99.90
59857;DHT22;45733;52.668;6.860;2023-08-30T00:40:01;13.50;99.90
59857;DHT22;45733;52.668;6.860;2023-08-30T00:42:27;13.50;99.90
59857;DHT22;45733;52.668;6.860;2023-08-30T00:44:53;13.50;99.90
59857;DHT22;45733;52.668;6.860;2023-08-30T00:47:20;13.40;99.90
59857;DHT22;45733;52.668;6.860;2023-08-30T00:49:52;13.30;99.90
59857;DHT22;45733;52.668;6.860;2023-08-30T00:52:21;13.20;99.90
59857;DHT22;45733;52.668;6.860;2023-08-30T00:54:47;13.20;99.90
59857;DHT22;45733;52.668;6.860;2023-08-30T00:57:12;13.30;99.90
59857;DHT22;45733;52.668;6.860;2023-08-30T00:59:38;13.30;99.90
59857;DHT22;45733;52.668;6.860;2023-08-30T01:02:04;13.30;99.90
59857;DHT22;45733;52.668;6.860;2023-08-30T01:04:30;13.20;99.90
59857;DHT22;45733;52.668;6.860;2023-08-30T01:06:56;13.30;99.90
59857;DHT22;45733;52.668;6.860;2023-08-30T01:09:22;13.40;99.90
59857;DHT22;45733;52.668;6.860;2023-08-30T01:12:00;13.30;99.90
59857;DHT22;45733;52.668;6.860;2023-08-30T01:14:34;13.30;99.90
59857;DHT22;45733;52.668;6.860;2023-08-30T01:17:16;13.10;99.90
59857;DHT22;45733;52.668;6.860;2023-08-30T01:20:07;13.20;99.90
59857;DHT22;45733;52.668;6.860;2023-08-30T01:28:30;13.00;99.90
59857;DHT22;45733;52.668;6.860;2023-08-30T01:31:00;12.90;99.90
59857;DHT22;45733;52.668;6.860;2023-08-30T01:33:26;13.00;99.90
59857;DHT22;45733;52.668;6.860;2023-08-30T01:35:55;13.00;99.90
59857;DHT22;45733;52.668;6.860;2023-08-30T01:38:26;12.90;99.90
59857;DHT22;45733;52.668;6.860;2023-08-30T01:40:53;12.90;99.90
59857;DHT22;45733;52.668;6.860;2023-08-30T01:43:29;12.90;99.90
59857;DHT22;45733;52.668;6.860;2023-08-30T01:45:59;12.90;99.90
59857;DHT22;45733;52.668;6.860;2023-08-30T01:48:27;12.90;99.90
59857;DHT22;45733;52.668;6.860;2023-08-30T01:50:56;12.80;99.90
59857;DHT22;45733;52.668;6.860;2023-08-30T01:53:24;12.80;99.90
59857;DHT22;45733;52.668;6.860;2023-08-30T01:55:50;12.80;99.90
59857;DHT22;45733;52.668;6.860;2023-08-30T01:58:16;12.80;99.90
59857;DHT22;45733;52.668;6.860;2023-08-30T02:00:42;12.90;99.90
59857;DHT22;45733;52.668;6.860;2023-08-30T02:03:11;12.80;99.90
59857;DHT22;45733;52.668;6.860;2023-08-30T02:05:43;12.80;99.90
59857;DHT22;45733;52.668;6.860;2023-08-30T02:08:14;12.80;99.90
59857;DHT22;45733;52.668;6.860;2023-08-30T02:10:48;12.90;99.90
59857;DHT22;45733;52.668;6.860;2023-08-30T02:13:26;12.70;99.90
59857;DHT22;45733;52.668;6.860;2023-08-30T02:15:55;12.80;99.90
59857;DHT22;45733;52.668;6.860;2023-08-30T02:18:23;12.80;99.90
59857;DHT22;45733;52.668;6.860;2023-08-30T02:20:49;12.80;99.90
59857;DHT22;45733;52.668;6.860;2023-08-30T02:23:14;12.80;99.90
59857;DHT22;45733;52.668;6.860;2023-08-30T02:25:40;12.80;99.90
59857;DHT22;45733;52.668;6.860;2023-08-30T02:28:06;12.70;99.90
59857;DHT22;45733;52.668;6.860;2023-08-30T02:30:31;12.70;99.90
59857;DHT22;45733;52.668;6.860;2023-08-30T02:33:00;12.50;99.90
59857;DHT22;45733;52.668;6.860;2023-08-30T02:35:26;12.50;99.90
59857;DHT22;45733;52.668;6.860;2023-08-30T02:37:51;12.50;99.90
59857;DHT22;45733;52.668;6.860;2023-08-30T02:40:20;12.60;99.90
59857;DHT22;45733;52.668;6.860;2023-08-30T02:42:51;12.40;99.90
59857;DHT22;45733;52.668;6.860;2023-08-30T02:45:17;12.20;99.90
59857;DHT22;45733;52.668;6.860;2023-08-30T02:47:44;12.10;99.90
59857;DHT22;45733;52.668;6.860;2023-08-30T02:50:11;12.10;99.90
59857;DHT22;45733;52.668;6.860;2023-08-30T02:52:36;12.00;99.90
59857;DHT22;45733;52.668;6.860;2023-08-30T02:55:02;12.00;99.90
59857;DHT22;45733;52.668;6.860;2023-08-30T02:57:31;12.00;99.90
59857;DHT22;45733;52.668;6.860;2023-08-30T02:59:57;11.90;99.90
59857;DHT22;45733;52.668;6.860;2023-08-30T03:02:22;11.80;99.90
59857;DHT22;45733;52.668;6.860;2023-08-30T03:04:51;11.90;99.90
59857;DHT22;45733;52.668;6.860;2023-08-30T03:07:17;11.80;99.90
59857;DHT22;45733;52.668;6.860;2023-08-30T03:09:42;11.80;99.90
59857;DHT22;45733;52.668;6.860;2023-08-30T03:12:08;12.10;99.90
59857;DHT22;45733;52.668;6.860;2023-08-30T03:14:34;12.00;99.90
59857;DHT22;45733;52.668;6.860;2023-08-30T03:16:59;12.10;99.90
59857;DHT22;45733;52.668;6.860;2023-08-30T03:19:25;12.30;99.90
59857;DHT22;45733;52.668;6.860;2023-08-30T03:21:50;12.40;99.90
59857;DHT22;45733;52.668;6.860;2023-08-30T03:24:16;12.50;99.90
59857;DHT22;45733;52.668;6.860;2023-08-30T03:26:43;12.40;99.90
59857;DHT22;45733;52.668;6.860;2023-08-30T03:29:15;12.60;99.90
59857;DHT22;45733;52.668;6.860;2023-08-30T03:31:41;12.70;99.90
59857;DHT22;45733;52.668;6.860;2023-08-30T03:34:08;12.50;99.90
59857;DHT22;45733;52.668;6.860;2023-08-30T03:36:37;12.50;99.90
59857;DHT22;45733;52.668;6.860;2023-08-30T03:39:03;12.60;99.90
59857;DHT22;45733;52.668;6.860;2023-08-30T03:41:29;12.50;99.90
59857;DHT22;45733;52.668;6.860;2023-08-30T03:43:54;12.50;99.90
59857;DHT22;45733;52.668;6.860;2023-08-30T03:46:20;12.60;99.90
59857;DHT22;45733;52.668;6.860;2023-08-30T03:48:49;12.40;99.90
59857;DHT22;45733;52.668;6.860;2023-08-30T03:51:15;12.50;99.90
59857;DHT22;45733;52.668;6.860;2023-08-30T03:53:41;12.50;99.90
59857;DHT22;45733;52.668;6.860;2023-08-30T03:56:09;12.20;99.90
59857;DHT22;45733;52.668;6.860;2023-08-30T03:58:35;12.10;99.90
59857;DHT22;45733;52.668;6.860;2023-08-30T04:01:09;12.10;99.90
59857;DHT22;45733;52.668;6.860;2023-08-30T04:03:40;12.00;99.90
59857;DHT22;45733;52.668;6.860;2023-08-30T04:06:05;11.80;99.90
59857;DHT22;45733;52.668;6.860;2023-08-30T04:08:31;11.80;99.90
59857;DHT22;45733;52.668;6.860;2023-08-30T04:10:57;12.10;99.90
59857;DHT22;45733;52.668;6.860;2023-08-30T04:13:26;12.20;99.90
59857;DHT22;45733;52.668;6.860;2023-08-30T04:16:03;12.30;99.90
59857;DHT22;45733;52.668;6.860;2023-08-30T04:18:29;12.20;99.90
59857;DHT22;45733;52.668;6.860;2023-08-30T04:21:00;12.20;99.90
59857;DHT22;45733;52.668;6.860;2023-08-30T04:23:31;12.20;99.90
59857;DHT22;45733;52.668;6.860;2023-08-30T04:25:56;12.10;99.90
59857;DHT22;45733;52.668;6.860;2023-08-30T04:28:22;12.10;99.90
59857;DHT22;45733;52.668;6.860;2023-08-30T04:30:53;12.20;99.90
59857;DHT22;45733;52.668;6.860;2023-08-30T04:33:19;12.10;99.90
59857;DHT22;45733;52.668;6.860;2023-08-30T04:35:57;12.20;99.90
59857;DHT22;45733;52.668;6.860;2023-08-30T04:38:22;12.40;99.90
59857;DHT22;45733;52.668;6.860;2023-08-30T04:40:57;12.30;99.90
59857;DHT22;45733;52.668;6.860;2023-08-30T04:43:23;12.20;99.90
59857;DHT22;45733;52.668;6.860;2023-08-30T04:45:49;12.30;99.90
59857;DHT22;45733;52.668;6.860;2023-08-30T04:48:15;12.20;99.90
59857;DHT22;45733;52.668;6.860;2023-08-30T04:50:40;12.20;99.90
59857;DHT22;45733;52.668;6.860;2023-08-30T04:53:06;12.20;99.90
59857;DHT22;45733;52.668;6.860;2023-08-30T04:55:35;12.20;99.90
59857;DHT22;45733;52.668;6.860;2023-08-30T04:58:00;12.10;99.90
59857;DHT22;45733;52.668;6.860;2023-08-30T05:00:26;12.30;99.90
59857;DHT22;45733;52.668;6.860;2023-08-30T05:02:52;12.30;99.90
59857;DHT22;45733;52.668;6.860;2023-08-30T05:05:35;12.30;99.90
59857;DHT22;45733;52.668;6.860;2023-08-30T05:08:03;12.50;99.90
59857;DHT22;45733;52.668;6.860;2023-08-30T05:10:29;12.40;99.90
59857;DHT22;45733;52.668;6.860;2023-08-30T05:12:55;12.40;99.90
59857;DHT22;45733;52.668;6.860;2023-08-30T05:15:21;12.50;99.90
59857;DHT22;45733;52.668;6.860;2023-08-30T05:17:47;12.50;99.90
59857;DHT22;45733;52.668;6.860;2023-08-30T05:20:13;12.50;99.90
59857;DHT22;45733;52.668;6.860;2023-08-30T05:22:38;12.60;99.90
59857;DHT22;45733;52.668;6.860;2023-08-30T05:25:04;12.70;99.90
59857;DHT22;45733;52.668;6.860;2023-08-30T05:27:30;12.70;99.90
59857;DHT22;45733;52.668;6.860;2023-08-30T05:29:56;12.70;99.90
59857;DHT22;45733;52.668;6.860;2023-08-30T05:32:22;12.80;99.90
59857;DHT22;45733;52.668;6.860;2023-08-30T05:34:47;12.90;99.90
59857;DHT22;45733;52.668;6.860;2023-08-30T05:37:13;12.90;99.90
59857;DHT22;45733;52.668;6.860;2023-08-30T05:39:39;12.90;99.90
59857;DHT22;45733;52.668;6.860;2023-08-30T05:42:05;13.00;99.90
59857;DHT22;45733;52.668;6.860;2023-08-30T05:44:30;13.10;99.90
59857;DHT22;45733;52.668;6.860;2023-08-30T05:46:56;13.20;99.90
59857;DHT22;45733;52.668;6.860;2023-08-30T05:49:22;13.30;99.90
59857;DHT22;45733;52.668;6.860;2023-08-30T05:51:47;13.20;99.90
59857;DHT22;45733;52.668;6.860;2023-08-30T05:54:13;13.30;99.90
59857;DHT22;45733;52.668;6.860;2023-08-30T05:56:39;13.30;99.90
59857;DHT22;45733;52.668;6.860;2023-08-30T05:59:05;13.50;99.90
59857;DHT22;45733;52.668;6.860;2023-08-30T06:01:30;13.50;99.90
59857;DHT22;45733;52.668;6.860;2023-08-30T06:03:56;13.50;99.90
59857;DHT22;45733;52.668;6.860;2023-08-30T06:06:22;13.70;99.90
59857;DHT22;45733;52.668;6.860;2023-08-30T06:08:48;13.70;99.90
59857;DHT22;45733;52.668;6.860;2023-08-30T06:11:16;13.80;99.90
59857;DHT22;45733;52.668;6.860;2023-08-30T06:13:42;13.90;99.90
59857;DHT22;45733;52.668;6.860;2023-08-30T06:16:07;13.90;99.90
59857;DHT22;45733;52.668;6.860;2023-08-30T06:18:33;14.00;99.90
59857;DHT22;45733;52.668;6.860;2023-08-30T06:20:59;14.00;99.90
59857;DHT22;45733;52.668;6.860;2023-08-30T06:23:24;14.00;99.90
59857;DHT22;45733;52.668;6.860;2023-08-30T06:25:57;14.10;99.90
59857;DHT22;45733;52.668;6.860;2023-08-30T06:28:23;14.20;99.90
59857;DHT22;45733;52.668;6.860;2023-08-30T06:30:51;14.20;99.90
59857;DHT22;45733;52.668;6.860;2023-08-30T06:33:20;14.30;99.90
59857;DHT22;45733;52.668;6.860;2023-08-30T06:35:49;14.40;99.90
59857;DHT22;45733;52.668;6.860;2023-08-30T06:38:16;14.40;99.90
59857;DHT22;45733;52.668;6.860;2023-08-30T06:40:46;14.40;99.90
59857;DHT22;45733;52.668;6.860;2023-08-30T06:43:12;14.60;99.90
59857;DHT22;45733;52.668;6.860;2023-08-30T06:45:44;14.70;99.90
59857;DHT22;45733;52.668;6.860;2023-08-30T06:48:13;14.70;99.90
59857;DHT22;45733;52.668;6.860;2023-08-30T06:50:39;14.80;99.90
59857;DHT22;45733;52.668;6.860;2023-08-30T06:53:04;15.00;99.90
59857;DHT22;45733;52.668;6.860;2023-08-30T06:55:30;15.00;99.90
59857;DHT22;45733;52.668;6.860;2023-08-30T06:57:57;15.30;99.90
59857;DHT22;45733;52.668;6.860;2023-08-30T07:00:23;15.40;99.90
59857;DHT22;45733;52.668;6.860;2023-08-30T07:02:49;15.50;99.90
59857;DHT22;45733;52.668;6.860;2023-08-30T07:05:14;15.60;99.90
59857;DHT22;45733;52.668;6.860;2023-08-30T07:07:40;15.70;99.90
59857;DHT22;45733;52.668;6.860;2023-08-30T07:10:16;15.70;99.90
59857;DHT22;45733;52.668;6.860;2023-08-30T07:12:45;15.90;99.90
59857;DHT22;45733;52.668;6.860;2023-08-30T07:15:16;16.10;99.90
59857;DHT22;45733;52.668;6.860;2023-08-30T07:17:42;16.40;99.90
59857;DHT22;45733;52.668;6.860;2023-08-30T07:20:11;16.70;99.90
59857;DHT22;45733;52.668;6.860;2023-08-30T07:22:37;17.00;99.90
59857;DHT22;45733;52.668;6.860;2023-08-30T07:25:03;17.30;99.90
59857;DHT22;45733;52.668;6.860;2023-08-30T07:27:29;17.40;99.90
59857;DHT22;45733;52.668;6.860;2023-08-30T07:29:54;17.50;99.90
59857;DHT22;45733;52.668;6.860;2023-08-30T07:32:23;17.60;99.90
59857;DHT22;45733;52.668;6.860;2023-08-30T07:34:52;17.70;99.90
59857;DHT22;45733;52.668;6.860;2023-08-30T07:37:21;17.70;99.90
59857;DHT22;45733;52.668;6.860;2023-08-30T07:39:51;17.30;99.90
59857;DHT22;45733;52.668;6.860;2023-08-30T07:42:26;17.20;99.90
59857;DHT22;45733;52.668;6.860;2023-08-30T07:44:59;17.10;99.90
59857;DHT22;45733;52.668;6.860;2023-08-30T07:47:25;17.00;99.90
59857;DHT22;45733;52.668;6.860;2023-08-30T07:49:55;16.90;99.90
59857;DHT22;45733;52.668;6.860;2023-08-30T07:52:21;16.90;99.90
59857;DHT22;45733;52.668;6.860;2023-08-30T07:54:47;16.80;99.90
59857;DHT22;45733;52.668;6.860;2023-08-30T07:57:13;16.90;99.90
59857;DHT22;45733;52.668;6.860;2023-08-30T07:59:38;16.90;99.90
59857;DHT22;45733;52.668;6.860;2023-08-30T08:02:07;17.00;99.90
59857;DHT22;45733;52.668;6.860;2023-08-30T08:04:34;17.20;99.90
59857;DHT22;45733;52.668;6.860;2023-08-30T08:07:00;17.60;99.90
59857;DHT22;45733;52.668;6.860;2023-08-30T08:09:29;17.70;99.90
59857;DHT22;45733;52.668;6.860;2023-08-30T08:11:55;17.90;99.90
59857;DHT22;45733;52.668;6.860;2023-08-30T08:14:23;18.00;99.90
59857;DHT22;45733;52.668;6.860;2023-08-30T08:17:04;18.20;99.90
59857;DHT22;45733;52.668;6.860;2023-08-30T08:19:29;18.70;99.90
59857;DHT22;45733;52.668;6.860;2023-08-30T08:21:55;18.90;99.90
59857;DHT22;45733;52.668;6.860;2023-08-30T08:24:21;19.00;99.90
59857;DHT22;45733;52.668;6.860;2023-08-30T08:26:47;19.20;99.90
59857;DHT22;45733;52.668;6.860;2023-08-30T08:29:15;19.10;99.90
59857;DHT22;45733;52.668;6.860;2023-08-30T08:31:41;18.40;99.90
59857;DHT22;45733;52.668;6.860;2023-08-30T08:34:20;18.30;99.90
59857;DHT22;45733;52.668;6.860;2023-08-30T08:36:49;18.40;99.90
59857;DHT22;45733;52.668;6.860;2023-08-30T08:39:17;18.40;99.90
59857;DHT22;45733;52.668;6.860;2023-08-30T08:41:47;18.20;99.90
59857;DHT22;45733;52.668;6.860;2023-08-30T08:44:26;17.80;99.90
59857;DHT22;45733;52.668;6.860;2023-08-30T08:46:54;17.60;99.90
59857;DHT22;45733;52.668;6.860;2023-08-30T08:49:23;17.60;99.90
59857;DHT22;45733;52.668;6.860;2023-08-30T08:51:51;17.40;99.90
59857;DHT22;45733;52.668;6.860;2023-08-30T08:54:19;17.30;99.90
59857;DHT22;45733;52.668;6.860;2023-08-30T08:56:46;17.30;99.90
59857;DHT22;45733;52.668;6.860;2023-08-30T08:59:24;17.40;99.90
59857;DHT22;45733;52.668;6.860;2023-08-30T09:01:50;17.30;99.90
59857;DHT22;45733;52.668;6.860;2023-08-30T09:04:25;17.30;99.90
59857;DHT22;45733;52.668;6.860;2023-08-30T09:06:54;17.30;99.90
59857;DHT22;45733;52.668;6.860;2023-08-30T09:09:23;17.40;99.90
59857;DHT22;45733;52.668;6.860;2023-08-30T09:11:52;17.30;99.90
59857;DHT22;45733;52.668;6.860;2023-08-30T09:14:22;17.40;99.90
59857;DHT22;45733;52.668;6.860;2023-08-30T09:17:02;17.30;99.90
59857;DHT22;45733;52.668;6.860;2023-08-30T09:19:29;17.20;99.90
59857;DHT22;45733;52.668;6.860;2023-08-30T09:22:01;17.00;99.90
59857;DHT22;45733;52.668;6.860;2023-08-30T09:24:38;16.90;99.90
59857;DHT22;45733;52.668;6.860;2023-08-30T09:27:04;16.90;99.90
59857;DHT22;45733;52.668;6.860;2023-08-30T09:29:30;16.80;99.90
59857;DHT22;45733;52.668;6.860;2023-08-30T09:31:57;16.70;99.90
59857;DHT22;45733;52.668;6.860;2023-08-30T09:34:26;16.60;99.90
59857;DHT22;45733;52.668;6.860;2023-08-30T09:36:52;16.50;99.90
59857;DHT22;45733;52.668;6.860;2023-08-30T09:39:18;16.40;99.90
59857;DHT22;45733;52.668;6.860;2023-08-30T09:41:49;16.20;99.90
59857;DHT22;45733;52.668;6.860;2023-08-30T09:44:16;16.10;99.90
59857;DHT22;45733;52.668;6.860;2023-08-30T09:46:43;16.10;99.90
59857;DHT22;45733;52.668;6.860;2023-08-30T09:49:10;15.90;99.90
59857;DHT22;45733;52.668;6.860;2023-08-30T09:51:38;16.00;99.90
59857;DHT22;45733;52.668;6.860;2023-08-30T09:54:10;16.00;99.90
59857;DHT22;45733;52.668;6.860;2023-08-30T09:56:39;16.00;99.90
59857;DHT22;45733;52.668;6.860;2023-08-30T09:59:05;16.10;99.90
59857;DHT22;45733;52.668;6.860;2023-08-30T10:01:32;16.10;99.90
59857;DHT22;45733;52.668;6.860;2023-08-30T10:03:58;16.30;99.90
59857;DHT22;45733;52.668;6.860;2023-08-30T10:06:26;16.20;99.90
59857;DHT22;45733;52.668;6.860;2023-08-30T10:08:52;16.30;99.90
59857;DHT22;45733;52.668;6.860;2023-08-30T10:11:21;16.30;99.90
59857;DHT22;45733;52.668;6.860;2023-08-30T10:13:52;16.50;99.90
59857;DHT22;45733;52.668;6.860;2023-08-30T10:16:22;16.90;99.90
59857;DHT22;45733;52.668;6.860;2023-08-30T10:19:02;17.20;99.90
59857;DHT22;45733;52.668;6.860;2023-08-30T10:21:30;17.20;99.90
59857;DHT22;45733;52.668;6.860;2023-08-30T10:23:57;17.40;99.90
59857;DHT22;45733;52.668;6.860;2023-08-30T10:26:24;17.60;99.90
59857;DHT22;45733;52.668;6.860;2023-08-30T10:28:55;17.40;99.90
59857;DHT22;45733;52.668;6.860;2023-08-30T10:31:22;17.40;99.90
59857;DHT22;45733;52.668;6.860;2023-08-30T10:33:54;17.20;99.90
59857;DHT22;45733;52.668;6.860;2023-08-30T10:36:26;17.10;99.90
59857;DHT22;45733;52.668;6.860;2023-08-30T10:38:55;16.90;99.90
59857;DHT22;45733;52.668;6.860;2023-08-30T10:41:25;16.80;99.90
59857;DHT22;45733;52.668;6.860;2023-08-30T10:43:52;16.70;99.90
59857;DHT22;45733;52.668;6.860;2023-08-30T10:46:32;16.70;99.90
59857;DHT22;45733;52.668;6.860;2023-08-30T10:49:09;16.80;99.90
59857;DHT22;45733;52.668;6.860;2023-08-30T10:51:39;16.70;99.90
59857;DHT22;45733;52.668;6.860;2023-08-30T10:54:15;16.70;99.90
59857;DHT22;45733;52.668;6.860;2023-08-30T10:56:57;16.60;99.90
59857;DHT22;45733;52.668;6.860;2023-08-30T10:59:26;16.60;99.90
59857;DHT22;45733;52.668;6.860;2023-08-30T11:01:52;16.60;99.90
59857;DHT22;45733;52.668;6.860;2023-08-30T11:04:19;16.60;99.90
59857;DHT22;45733;52.668;6.860;2023-08-30T11:06:46;16.40;99.90
59857;DHT22;45733;52.668;6.860;2023-08-30T11:09:22;16.50;99.90
59857;DHT22;45733;52.668;6.860;2023-08-30T11:11:49;16.50;99.90
59857;DHT22;45733;52.668;6.860;2023-08-30T11:14:17;16.40;99.90
59857;DHT22;45733;52.668;6.860;2023-08-30T11:16:43;16.30;99.90
59857;DHT22;45733;52.668;6.860;2023-08-30T11:19:10;16.50;99.90
59857;DHT22;45733;52.668;6.860;2023-08-30T11:21:38;16.30;99.90
59857;DHT22;45733;52.668;6.860;2023-08-30T11:24:05;16.50;99.90
59857;DHT22;45733;52.668;6.860;2023-08-30T11:26:31;16.50;99.90
59857;DHT22;45733;52.668;6.860;2023-08-30T11:28:56;16.30;99.90
59857;DHT22;45733;52.668;6.860;2023-08-30T11:31:25;16.10;99.90
59857;DHT22;45733;52.668;6.860;2023-08-30T11:33:57;16.10;99.90
59857;DHT22;45733;52.668;6.860;2023-08-30T11:36:27;16.30;99.90
59857;DHT22;45733;52.668;6.860;2023-08-30T11:38:54;16.50;99.90
59857;DHT22;45733;52.668;6.860;2023-08-30T11:41:20;16.40;99.90
59857;DHT22;45733;52.668;6.860;2023-08-30T11:43:47;16.20;99.90
59857;DHT22;45733;52.668;6.860;2023-08-30T11:46:13;16.20;99.90
59857;DHT22;45733;52.668;6.860;2023-08-30T11:48:40;16.20;99.90
59857;DHT22;45733;52.668;6.860;2023-08-30T11:51:07;16.10;99.90
59857;DHT22;45733;52.668;6.860;2023-08-30T11:53:34;16.00;99.90
59857;DHT22;45733;52.668;6.860;2023-08-30T11:56:00;16.00;99.90
59857;DHT22;45733;52.668;6.860;2023-08-30T11:58:26;15.90;99.90
59857;DHT22;45733;52.668;6.860;2023-08-30T12:00:53;16.10;99.90
59857;DHT22;45733;52.668;6.860;2023-08-30T12:03:22;16.30;99.90
59857;DHT22;45733;52.668;6.860;2023-08-30T12:05:50;16.30;99.90
59857;DHT22;45733;52.668;6.860;2023-08-30T12:08:30;16.10;99.90
59857;DHT22;45733;52.668;6.860;2023-08-30T12:10:57;15.90;99.90
59857;DHT22;45733;52.668;6.860;2023-08-30T12:13:30;15.90;99.90
59857;DHT22;45733;52.668;6.860;2023-08-30T12:15:57;15.90;99.90
59857;DHT22;45733;52.668;6.860;2023-08-30T12:18:24;16.50;99.90
59857;DHT22;45733;52.668;6.860;2023-08-30T12:21:03;16.30;99.90
59857;DHT22;45733;52.668;6.860;2023-08-30T12:23:31;16.20;99.90
59857;DHT22;45733;52.668;6.860;2023-08-30T12:28:28;16.40;99.90
59857;DHT22;45733;52.668;6.860;2023-08-30T12:30:55;16.50;99.90
59857;DHT22;45733;52.668;6.860;2023-08-30T12:33:21;16.20;99.90
59857;DHT22;45733;52.668;6.860;2023-08-30T12:35:47;16.50;99.90
59857;DHT22;45733;52.668;6.860;2023-08-30T12:38:15;16.60;99.90
59857;DHT22;45733;52.668;6.860;2023-08-30T12:40:46;16.80;99.90
59857;DHT22;45733;52.668;6.860;2023-08-30T12:43:13;16.70;99.90
59857;DHT22;45733;52.668;6.860;2023-08-30T12:45:40;16.60;99.90
59857;DHT22;45733;52.668;6.860;2023-08-30T12:48:07;16.70;99.90
59857;DHT22;45733;52.668;6.860;2023-08-30T12:50:34;16.60;99.90
59857;DHT22;45733;52.668;6.860;2023-08-30T12:53:01;16.60;99.90
59857;DHT22;45733;52.668;6.860;2023-08-30T12:55:30;16.40;99.90
59857;DHT22;45733;52.668;6.860;2023-08-30T12:57:59;16.70;99.90
59857;DHT22;45733;52.668;6.860;2023-08-30T13:00:24;16.50;99.90
59857;DHT22;45733;52.668;6.860;2023-08-30T13:02:50;17.10;99.90
59857;DHT22;45733;52.668;6.860;2023-08-30T13:05:16;17.10;99.90
59857;DHT22;45733;52.668;6.860;2023-08-30T13:07:42;17.60;99.90
59857;DHT22;45733;52.668;6.860;2023-08-30T13:10:21;17.50;99.90
59857;DHT22;45733;52.668;6.860;2023-08-30T13:12:50;17.40;99.90
59857;DHT22;45733;52.668;6.860;2023-08-30T13:15:16;17.30;99.90
59857;DHT22;45733;52.668;6.860;2023-08-30T13:17:41;16.90;99.90
59857;DHT22;45733;52.668;6.860;2023-08-30T13:20:08;16.90;99.90
59857;DHT22;45733;52.668;6.860;2023-08-30T13:22:33;16.80;99.90
59857;DHT22;45733;52.668;6.860;2023-08-30T13:24:59;17.10;99.90
59857;DHT22;45733;52.668;6.860;2023-08-30T13:27:25;17.00;99.90
59857;DHT22;45733;52.668;6.860;2023-08-30T13:29:51;17.10;99.90
59857;DHT22;45733;52.668;6.860;2023-08-30T13:32:17;17.00;99.90
59857;DHT22;45733;52.668;6.860;2023-08-30T13:34:42;17.00;99.90
59857;DHT22;45733;52.668;6.860;2023-08-30T13:37:12;17.10;99.90
59857;DHT22;45733;52.668;6.860;2023-08-30T13:39:39;17.20;99.90
59857;DHT22;45733;52.668;6.860;2023-08-30T13:42:05;17.30;99.90
59857;DHT22;45733;52.668;6.860;2023-08-30T13:44:34;17.60;99.90
59857;DHT22;45733;52.668;6.860;2023-08-30T13:47:11;18.40;99.90
59857;DHT22;45733;52.668;6.860;2023-08-30T13:49:37;18.90;99.90
59857;DHT22;45733;52.668;6.860;2023-08-30T13:52:03;18.80;99.90
59857;DHT22;45733;52.668;6.860;2023-08-30T13:54:38;19.30;99.90
59857;DHT22;45733;52.668;6.860;2023-08-30T13:57:03;19.10;99.90
59857;DHT22;45733;52.668;6.860;2023-08-30T13:59:29;19.10;99.90
59857;DHT22;45733;52.668;6.860;2023-08-30T14:01:56;19.00;99.90
59857;DHT22;45733;52.668;6.860;2023-08-30T14:04:24;19.20;99.90
59857;DHT22;45733;52.668;6.860;2023-08-30T14:06:50;19.70;99.90
59857;DHT22;45733;52.668;6.860;2023-08-30T14:09:16;19.60;99.90
59857;DHT22;45733;52.668;6.860;2023-08-30T14:11:42;20.00;99.90
59857;DHT22;45733;52.668;6.860;2023-08-30T14:14:08;20.10;99.90
59857;DHT22;45733;52.668;6.860;2023-08-30T14:16:34;19.60;99.90
59857;DHT22;45733;52.668;6.860;2023-08-30T14:18:59;19.30;99.90
59857;DHT22;45733;52.668;6.860;2023-08-30T14:21:26;18.90;99.90
59857;DHT22;45733;52.668;6.860;2023-08-30T14:23:52;19.00;99.90
59857;DHT22;45733;52.668;6.860;2023-08-30T14:26:18;19.10;99.90
59857;DHT22;45733;52.668;6.860;2023-08-30T14:28:44;19.70;99.90
59857;DHT22;45733;52.668;6.860;2023-08-30T14:31:10;19.70;99.90
59857;DHT22;45733;52.668;6.860;2023-08-30T14:33:36;19.10;99.90
59857;DHT22;45733;52.668;6.860;2023-08-30T14:36:02;19.00;99.90
59857;DHT22;45733;52.668;6.860;2023-08-30T14:38:29;18.80;99.90
59857;DHT22;45733;52.668;6.860;2023-08-30T14:40:59;18.50;99.90
59857;DHT22;45733;52.668;6.860;2023-08-30T14:43:24;18.60;99.90
59857;DHT22;45733;52.668;6.860;2023-08-30T14:45:50;18.80;99.90
59857;DHT22;45733;52.668;6.860;2023-08-30T14:48:16;19.00;99.90
59857;DHT22;45733;52.668;6.860;2023-08-30T14:50:42;19.00;99.90
59857;DHT22;45733;52.668;6.860;2023-08-30T14:53:08;19.20;99.90
59857;DHT22;45733;52.668;6.860;2023-08-30T14:55:33;19.00;99.90
59857;DHT22;45733;52.668;6.860;2023-08-30T14:57:59;19.10;99.90
59857;DHT22;45733;52.668;6.860;2023-08-30T15:00:25;19.60;99.90
59857;DHT22;45733;52.668;6.860;2023-08-30T15:02:51;19.50;99.90
59857;DHT22;45733;52.668;6.860;2023-08-30T15:05:17;19.20;99.90
59857;DHT22;45733;52.668;6.860;2023-08-30T15:07:43;19.10;99.90
59857;DHT22;45733;52.668;6.860;2023-08-30T15:10:08;18.90;99.90
59857;DHT22;45733;52.668;6.860;2023-08-30T15:12:34;18.80;99.90
59857;DHT22;45733;52.668;6.860;2023-08-30T15:15:00;18.70;99.90
59857;DHT22;45733;52.668;6.860;2023-08-30T15:17:26;18.50;99.90
59857;DHT22;45733;52.668;6.860;2023-08-30T15:19:51;18.80;99.90
59857;DHT22;45733;52.668;6.860;2023-08-30T15:22:19;19.10;99.90
59857;DHT22;45733;52.668;6.860;2023-08-30T15:24:45;19.30;99.90
59857;DHT22;45733;52.668;6.860;2023-08-30T15:27:11;19.50;99.90
59857;DHT22;45733;52.668;6.860;2023-08-30T15:29:37;19.60;99.90
59857;DHT22;45733;52.668;6.860;2023-08-30T15:32:05;19.60;99.90
59857;DHT22;45733;52.668;6.860;2023-08-30T15:34:31;19.70;99.90
59857;DHT22;45733;52.668;6.860;2023-08-30T15:36:57;19.50;99.90
59857;DHT22;45733;52.668;6.860;2023-08-30T15:39:23;19.40;99.90
59857;DHT22;45733;52.668;6.860;2023-08-30T15:41:48;19.00;99.90